Centenario Blu — 3FXD7 — position and weather

sailwx.info

Track history (hours):
 
Tides and Currents Weather Stations Pressure Air Temp Water Temp Dewpoint Dewpoint Depression Visibility Wind Speed Wind Dir Waves Ship Positions

Centenario Blu

Last reported at 2016-Apr-23 21:25 UTC. Time now 2016-Apr-29 10:02 UTC.
Position N 26°08' W 079°20'.

Length 190 m; draft 12.2 m.

Type: Cargo ship. MMSI: 356832000.

Date/timePositionNaut miles runAvg speedWind from/ knotsBaromVisibWave heightAir tempDewpointWater temp
2016-Apr-23 21:25N 26°08' W 079°20'1315.4
2016-Apr-23 20:33N 25°55' W 079°23'  
2016-Apr-20 16:33N 29°21' W 094°47'1111.2
2016-Apr-20 15:34N 29°31' W 094°53'1010.4
2016-Apr-20 14:34N 29°40' W 094°58'7 7.4
2016-Apr-20 13:34N 29°45' W 095°04'4 4.1
2016-Apr-20 12:32N 29°44' W 095°09'0 0.0
2016-Apr-20 11:32N 29°44' W 095°09'0 0.0
2016-Apr-20 10:29N 29°44' W 095°09'0 0.0
2016-Apr-20 09:32N 29°44' W 095°09'0 0.0
2016-Apr-20 08:32N 29°44' W 095°09'0 0.0
2016-Apr-20 07:32N 29°44' W 095°09'0 0.0
2016-Apr-20 06:32N 29°44' W 095°09'0 0.0
2016-Apr-20 05:29N 29°44' W 095°09'0 0.0
2016-Apr-20 04:32N 29°44' W 095°09'0 0.0
2016-Apr-20 03:32N 29°44' W 095°09'0 0.0
2016-Apr-20 02:32N 29°44' W 095°09'0 0.0
2016-Apr-20 01:32N 29°44' W 095°09'0 0.0
2016-Apr-20 00:32N 29°44' W 095°09'0 0.0
2016-Apr-19 23:32N 29°44' W 095°09'0 0.0
2016-Apr-19 22:32N 29°44' W 095°09'0 0.0
2016-Apr-19 21:32N 29°44' W 095°09'0 0.0
2016-Apr-19 20:29N 29°44' W 095°09'0 0.0
2016-Apr-19 19:32N 29°44' W 095°09'0 0.0
2016-Apr-19 18:32N 29°44' W 095°09'0 0.0
2016-Apr-19 17:32N 29°44' W 095°09'0 0.0
2016-Apr-19 16:32N 29°44' W 095°09'0 0.0
2016-Apr-19 15:32N 29°44' W 095°09'0 0.0
2016-Apr-19 14:32N 29°44' W 095°09'0 0.0
2016-Apr-19 13:32N 29°44' W 095°09'0 0.0
2016-Apr-19 12:32N 29°44' W 095°09'0 0.0
2016-Apr-19 11:32N 29°44' W 095°09'0 0.0
2016-Apr-19 10:32N 29°44' W 095°09'0 0.0
2016-Apr-19 09:32N 29°44' W 095°09'0 0.0
2016-Apr-19 08:32N 29°44' W 095°09'0 0.0
2016-Apr-19 07:29N 29°44' W 095°09'0 0.0
2016-Apr-19 06:32N 29°44' W 095°09'0 0.0
2016-Apr-19 05:32N 29°44' W 095°09'0 0.0
2016-Apr-19 04:29N 29°44' W 095°09'1 0.7
2016-Apr-19 03:33N 29°44' W 095°08'6 5.7
2016-Apr-19 02:33N 29°43' W 095°01'1010.2
2016-Apr-19 01:33N 29°35' W 094°56'1312.7
2016-Apr-19 00:34N 29°23' W 094°49'  
2016-Apr-14 06:10N 30°00' W 090°50'0 0.0
2016-Apr-14 05:22N 30°00' W 090°50'  
Track history (hours):
 
Tides and Currents Weather Stations Pressure Air Temp Water Temp Dewpoint Dewpoint Depression Visibility Wind Speed Wind Dir Waves Ship Positions

Centenario Blu

Last reported at 2016-Apr-23 21:25 UTC. Time now 2016-Apr-29 10:02 UTC.
Position N 26°08' W 079°20'.

Length 190 m; draft 12.2 m.

Type: Cargo ship. MMSI: 356832000.

Date/timePositionNaut miles runAvg speedWind from/ knotsBaromVisibWave heightAir tempDewpointWater temp
2016-Apr-23 21:25N 26°08' W 079°20'1315.4
2016-Apr-23 20:33N 25°55' W 079°23'  
2016-Apr-20 16:33N 29°21' W 094°47'1111.2
2016-Apr-20 15:34N 29°31' W 094°53'1010.4
2016-Apr-20 14:34N 29°40' W 094°58'7 7.4
2016-Apr-20 13:34N 29°45' W 095°04'4 4.1
2016-Apr-20 12:32N 29°44' W 095°09'0 0.0
2016-Apr-20 11:32N 29°44' W 095°09'0 0.0
2016-Apr-20 10:29N 29°44' W 095°09'0 0.0
2016-Apr-20 09:32N 29°44' W 095°09'0 0.0
2016-Apr-20 08:32N 29°44' W 095°09'0 0.0
2016-Apr-20 07:32N 29°44' W 095°09'0 0.0
2016-Apr-20 06:32N 29°44' W 095°09'0 0.0
2016-Apr-20 05:29N 29°44' W 095°09'0 0.0
2016-Apr-20 04:32N 29°44' W 095°09'0 0.0
2016-Apr-20 03:32N 29°44' W 095°09'0 0.0
2016-Apr-20 02:32N 29°44' W 095°09'0 0.0
2016-Apr-20 01:32N 29°44' W 095°09'0 0.0
2016-Apr-20 00:32N 29°44' W 095°09'0 0.0
2016-Apr-19 23:32N 29°44' W 095°09'0 0.0
2016-Apr-19 22:32N 29°44' W 095°09'0 0.0
2016-Apr-19 21:32N 29°44' W 095°09'0 0.0
2016-Apr-19 20:29N 29°44' W 095°09'0 0.0
2016-Apr-19 19:32N 29°44' W 095°09'0 0.0
2016-Apr-19 18:32N 29°44' W 095°09'0 0.0
2016-Apr-19 17:32N 29°44' W 095°09'0 0.0
2016-Apr-19 16:32N 29°44' W 095°09'0 0.0
2016-Apr-19 15:32N 29°44' W 095°09'0 0.0
2016-Apr-19 14:32N 29°44' W 095°09'0 0.0
2016-Apr-19 13:32N 29°44' W 095°09'0 0.0
2016-Apr-19 12:32N 29°44' W 095°09'0 0.0
2016-Apr-19 11:32N 29°44' W 095°09'0 0.0
2016-Apr-19 10:32N 29°44' W 095°09'0 0.0
2016-Apr-19 09:32N 29°44' W 095°09'0 0.0
2016-Apr-19 08:32N 29°44' W 095°09'0 0.0
2016-Apr-19 07:29N 29°44' W 095°09'0 0.0
2016-Apr-19 06:32N 29°44' W 095°09'0 0.0
2016-Apr-19 05:32N 29°44' W 095°09'0 0.0
2016-Apr-19 04:29N 29°44' W 095°09'1 0.7
2016-Apr-19 03:33N 29°44' W 095°08'6 5.7
2016-Apr-19 02:33N 29°43' W 095°01'1010.2
2016-Apr-19 01:33N 29°35' W 094°56'1312.7
2016-Apr-19 00:34N 29°23' W 094°49'  
2016-Apr-14 06:10N 30°00' W 090°50'0 0.0
2016-Apr-14 05:22N 30°00' W 090°50'  

Dump ship's entire track history